Terminal Aerodrome Forecast
Issued by NWS Grand Forks, ND

Home | Current Version | Previous Version | Graphics & Text | Print | Product List | Glossary On
Versions: 1 2 3 4 5 6 7 8 9 10 11 12 13 14 15 16
713
FTUS43 KFGF 221735
TAFGFK
TAF
KGFK 221735Z 2218/2318 17020G30KT P6SM BKN050
     FM230100 17014KT P6SM BKN040
     FM230400 17010KT P6SM VCTS BKN040CB
      TEMPO 2305/2307 4SM TSRA OVC035CB
     FM231000 18007KT P6SM VCSH BKN030
     FM231200 23010KT P6SM BKN250=

USA.gov is the U.S. government's official web portal to all federal, state and local government web resources and services.